createdAt,value
2023-04-20T00:00:47.843Z,27.21
2023-04-20T00:01:47.824Z,27.17
2023-04-20T00:02:47.912Z,27.21
2023-04-20T00:03:47.883Z,27.26
2023-04-20T00:04:47.868Z,27.11
2023-04-20T00:05:47.927Z,27.17
2023-04-20T00:06:47.940Z,27.16
2023-04-20T00:07:48.003Z,27.19
2023-04-20T00:08:48.000Z,27.20
2023-04-20T00:09:48.031Z,27.20
2023-04-20T00:10:48.031Z,27.30
2023-04-20T00:11:48.024Z,27.24
2023-04-20T00:12:48.024Z,27.20
2023-04-20T00:13:48.097Z,27.17
2023-04-20T00:14:48.101Z,27.24
2023-04-20T00:15:48.168Z,27.26
2023-04-20T00:16:48.220Z,27.20
2023-04-20T00:17:48.238Z,27.26
2023-04-20T00:18:48.248Z,27.13
2023-04-20T00:19:48.315Z,27.20
2023-04-20T00:20:48.313Z,27.26
2023-04-20T00:21:48.349Z,27.26
2023-04-20T00:22:48.382Z,27.23
2023-04-20T00:23:48.428Z,27.21
2023-04-20T00:24:48.466Z,27.28
2023-04-20T00:25:48.453Z,27.23
2023-04-20T00:26:48.526Z,27.17
2023-04-20T00:27:48.548Z,27.21
2023-04-20T00:28:48.586Z,27.24
2023-04-20T00:29:48.601Z,27.13
2023-04-20T00:30:48.668Z,27.16
2023-04-20T00:31:48.658Z,27.16
2023-04-20T00:32:48.687Z,27.11
2023-04-20T00:33:48.668Z,27.21
2023-04-20T00:34:48.642Z,27.09
2023-04-20T00:35:48.648Z,27.15
2023-04-20T00:36:48.676Z,27.00
2023-04-20T00:37:48.734Z,27.07
2023-04-20T00:38:48.763Z,27.09
2023-04-20T00:39:48.798Z,27.07
2023-04-20T00:40:48.881Z,27.08
2023-04-20T00:41:48.890Z,27.10
2023-04-20T00:42:48.930Z,27.10
2023-04-20T00:43:48.949Z,27.09
2023-04-20T00:44:48.946Z,27.15
2023-04-20T00:45:49.001Z,27.14
2023-04-20T00:46:48.956Z,27.09
2023-04-20T00:47:48.941Z,27.07
2023-04-20T00:48:48.911Z,27.08
2023-04-20T00:49:48.936Z,27.13
2023-04-20T00:50:48.908Z,27.09
2023-04-20T00:51:48.906Z,27.15
2023-04-20T00:52:48.946Z,27.11
2023-04-20T00:53:48.933Z,27.08
2023-04-20T00:54:48.941Z,27.09
2023-04-20T00:55:48.936Z,27.10
2023-04-20T00:56:48.953Z,27.02
2023-04-20T00:57:48.918Z,27.09
2023-04-20T00:58:48.952Z,27.06
2023-04-20T00:59:48.949Z,27.03
2023-04-20T01:00:48.949Z,27.06
2023-04-20T01:01:49.014Z,27.07
2023-04-20T01:02:49.128Z,27.00
2023-04-20T01:03:49.078Z,27.07
2023-04-20T01:04:48.983Z,27.05
2023-04-20T01:05:49.003Z,27.09
2023-04-20T01:06:48.986Z,27.10
2023-04-20T01:07:49.010Z,27.11
2023-04-20T01:08:49.009Z,27.06
2023-04-20T01:09:48.982Z,27.03
2023-04-20T01:10:49.020Z,27.10
2023-04-20T01:11:49.026Z,27.06
2023-04-20T01:12:49.049Z,27.03
2023-04-20T01:13:49.049Z,27.05
2023-04-20T01:14:49.047Z,27.03
2023-04-20T01:15:49.097Z,27.08
2023-04-20T01:16:49.078Z,27.03
2023-04-20T01:17:49.170Z,27.02
2023-04-20T01:18:49.171Z,26.96
2023-04-20T01:19:49.232Z,26.99
2023-04-20T01:20:49.233Z,27.00
2023-04-20T01:21:49.274Z,26.98
2023-04-20T01:22:49.323Z,26.99
2023-04-20T01:23:49.374Z,26.99
2023-04-20T01:24:49.404Z,26.97
2023-04-20T01:25:49.419Z,26.99
2023-04-20T01:26:49.421Z,26.99
2023-04-20T01:27:49.473Z,26.96
2023-04-20T01:28:49.496Z,26.99
2023-04-20T01:29:49.545Z,26.90
2023-04-20T01:30:49.603Z,26.94
2023-04-20T01:31:49.638Z,26.98
2023-04-20T01:32:49.641Z,26.90
2023-04-20T01:33:49.649Z,27.00
2023-04-20T01:34:49.698Z,26.86
2023-04-20T01:35:49.730Z,26.82
2023-04-20T01:36:49.743Z,26.90
2023-04-20T01:37:49.775Z,26.85
2023-04-20T01:38:49.846Z,26.86
2023-04-20T01:39:49.853Z,26.88
2023-04-20T01:40:49.869Z,26.86
2023-04-20T01:41:49.955Z,26.82
2023-04-20T01:42:49.946Z,26.82
2023-04-20T01:43:50.007Z,26.89
2023-04-20T01:44:50.018Z,26.88
2023-04-20T01:45:50.055Z,26.79
2023-04-20T01:46:50.142Z,26.82
2023-04-20T01:47:50.159Z,26.79
2023-04-20T01:48:50.151Z,26.89
2023-04-20T01:49:50.199Z,26.84
2023-04-20T01:50:50.241Z,26.79
2023-04-20T01:51:50.265Z,26.81
2023-04-20T01:52:50.310Z,26.85
2023-04-20T01:53:50.352Z,26.86
2023-04-20T01:54:50.384Z,26.78
2023-04-20T01:55:50.444Z,26.83
2023-04-20T01:56:50.478Z,26.68
2023-04-20T01:57:50.512Z,26.84
2023-04-20T01:58:50.518Z,26.81
2023-04-20T01:59:50.536Z,26.76
2023-04-20T02:00:50.707Z,26.82
2023-04-20T02:01:50.655Z,26.86
2023-04-20T02:02:50.836Z,26.82
2023-04-20T02:03:50.952Z,26.74
2023-04-20T02:04:50.690Z,26.79
2023-04-20T02:05:50.696Z,26.84
2023-04-20T02:06:50.751Z,26.81
2023-04-20T02:07:50.795Z,26.81
2023-04-20T02:08:50.873Z,26.82
2023-04-20T02:09:50.928Z,26.81
2023-04-20T02:10:51.010Z,26.81
2023-04-20T02:11:51.045Z,26.79
2023-04-20T02:12:51.081Z,26.83
2023-04-20T02:13:51.087Z,26.77
2023-04-20T02:14:51.108Z,26.79
2023-04-20T02:15:51.160Z,26.76
2023-04-20T02:16:51.163Z,26.73
2023-04-20T02:17:51.224Z,26.77
2023-04-20T02:18:51.226Z,26.75
2023-04-20T02:19:51.228Z,26.69
2023-04-20T02:20:51.247Z,26.64
2023-04-20T02:21:51.243Z,26.64
2023-04-20T02:22:51.272Z,26.58
2023-04-20T02:23:51.269Z,26.62
2023-04-20T02:24:51.289Z,26.57
2023-04-20T02:25:51.326Z,26.57
2023-04-20T02:26:51.313Z,26.55
2023-04-20T02:27:51.326Z,26.52
2023-04-20T02:28:51.357Z,26.55
2023-04-20T02:29:51.384Z,26.47
2023-04-20T02:32:10.158Z,26.42
2023-04-20T02:33:10.151Z,26.46
2023-04-20T02:34:10.141Z,26.40
2023-04-20T02:35:10.113Z,26.43
2023-04-20T02:36:10.111Z,26.39
2023-04-20T02:37:10.122Z,26.39
2023-04-20T02:38:10.102Z,26.36
2023-04-20T02:39:10.080Z,26.33
2023-04-20T02:40:10.112Z,26.34
2023-04-20T02:41:10.081Z,26.29
2023-04-20T02:42:10.079Z,26.26
2023-04-20T02:43:10.099Z,26.28
2023-04-20T02:44:10.086Z,26.24
2023-04-20T02:45:10.043Z,26.28
2023-04-20T02:46:10.094Z,26.24
2023-04-20T02:47:10.030Z,26.23
2023-04-20T02:48:10.052Z,26.24
2023-04-20T02:49:10.069Z,26.23
2023-04-20T02:50:10.036Z,26.23
2023-04-20T02:51:10.003Z,26.20
2023-04-20T02:52:10.000Z,26.20
2023-04-20T02:53:10.019Z,26.21
2023-04-20T02:54:10.020Z,26.17
2023-04-20T02:55:10.000Z,26.16
2023-04-20T02:56:10.113Z,26.16
2023-04-20T02:57:09.995Z,26.15
2023-04-20T02:58:09.995Z,26.10
2023-04-20T02:59:10.007Z,26.12
2023-04-20T03:00:09.989Z,26.13
2023-04-20T03:01:09.955Z,26.12
2023-04-20T03:02:09.977Z,26.12
2023-04-20T03:03:10.051Z,26.07
2023-04-20T03:04:10.071Z,26.09
2023-04-20T03:05:09.924Z,26.05
2023-04-20T03:06:09.927Z,26.05
2023-04-20T03:07:09.918Z,26.08
2023-04-20T03:08:09.905Z,26.09
2023-04-20T03:09:09.912Z,26.05
2023-04-20T03:10:09.903Z,26.08
2023-04-20T03:11:09.890Z,26.05
2023-04-20T03:12:09.886Z,26.05
2023-04-20T03:13:09.897Z,26.07
2023-04-20T03:14:09.869Z,26.02
2023-04-20T03:15:09.876Z,26.04
2023-04-20T03:16:09.863Z,26.00
2023-04-20T03:17:09.840Z,26.00
2023-04-20T03:18:09.853Z,25.96
2023-04-20T03:19:09.856Z,25.98
2023-04-20T03:20:09.851Z,25.98
2023-04-20T03:21:09.812Z,25.98
2023-04-20T03:22:09.831Z,25.92
2023-04-20T03:23:09.809Z,25.95
2023-04-20T03:24:09.812Z,25.97
2023-04-20T03:25:09.820Z,25.98
2023-04-20T03:26:09.887Z,25.94
2023-04-20T03:27:09.788Z,25.92
2023-04-20T03:28:09.759Z,25.96
2023-04-20T03:29:09.778Z,25.97
2023-04-20T03:30:09.761Z,25.92
2023-04-20T03:31:09.753Z,25.92
2023-04-20T03:32:09.783Z,25.92
2023-04-20T03:33:09.764Z,25.86
2023-04-20T03:34:09.699Z,25.94
2023-04-20T03:35:09.723Z,25.87
2023-04-20T03:36:09.726Z,25.92
2023-04-20T03:37:09.719Z,25.87
2023-04-20T03:38:09.693Z,25.89
2023-04-20T03:39:10.347Z,25.93
2023-04-20T03:40:09.677Z,25.85
2023-04-20T03:41:09.698Z,25.81
2023-04-20T03:42:09.739Z,25.82
2023-04-20T03:43:09.764Z,25.84
2023-04-20T03:44:09.781Z,25.86
2023-04-20T03:45:09.786Z,25.83
2023-04-20T03:46:09.889Z,25.84
2023-04-20T03:47:09.859Z,25.84
2023-04-20T03:48:09.897Z,25.87
2023-04-20T03:49:09.905Z,25.76
2023-04-20T03:50:09.972Z,25.79
2023-04-20T03:51:10.022Z,25.82
2023-04-20T03:52:10.025Z,25.79
2023-04-20T03:53:10.084Z,25.78
2023-04-20T03:54:10.110Z,25.85
2023-04-20T03:55:10.112Z,25.78
2023-04-20T03:56:10.102Z,25.82
2023-04-20T03:57:10.152Z,25.79
2023-04-20T03:58:10.149Z,25.78
2023-04-20T03:59:10.196Z,25.82
2023-04-20T04:00:10.228Z,25.75
2023-04-20T04:01:10.252Z,25.75
2023-04-20T04:02:10.427Z,25.81
2023-04-20T04:03:10.567Z,25.74
2023-04-20T04:04:10.531Z,25.72
2023-04-20T04:05:10.403Z,25.74
2023-04-20T04:06:10.355Z,25.70
2023-04-20T04:07:10.404Z,25.67
2023-04-20T04:08:10.390Z,25.70
2023-04-20T04:09:10.424Z,25.75
2023-04-20T04:10:10.511Z,25.74
2023-04-20T04:11:10.451Z,25.74
2023-04-20T04:12:10.476Z,25.76
2023-04-20T04:13:10.485Z,25.73
2023-04-20T04:14:10.491Z,25.76
2023-04-20T04:15:10.584Z,25.71
2023-04-20T04:16:10.560Z,25.70
2023-04-20T04:17:10.662Z,25.73
2023-04-20T04:18:10.671Z,25.71
2023-04-20T04:19:10.797Z,25.73
2023-04-20T04:20:10.787Z,25.68
2023-04-20T04:21:10.877Z,25.70
2023-04-20T04:22:10.928Z,25.68
2023-04-20T04:23:10.996Z,25.71
2023-04-20T04:24:11.075Z,25.71
2023-04-20T04:25:11.074Z,25.66
2023-04-20T04:26:11.143Z,25.67
2023-04-20T04:27:11.251Z,25.69
2023-04-20T04:28:11.316Z,25.60
2023-04-20T04:29:11.334Z,25.62
2023-04-20T04:30:11.412Z,25.67
2023-04-20T04:31:11.479Z,25.66
2023-04-20T04:32:11.478Z,25.60
2023-04-20T04:33:11.531Z,25.65
2023-04-20T04:34:11.532Z,25.60
2023-04-20T04:35:11.533Z,25.66
2023-04-20T04:36:11.578Z,25.65
2023-04-20T04:37:11.594Z,25.65
2023-04-20T04:38:11.598Z,25.56
2023-04-20T04:39:11.612Z,25.59
2023-04-20T04:40:11.660Z,25.60
2023-04-20T04:41:11.691Z,25.67
2023-04-20T04:42:11.781Z,25.62
2023-04-20T04:43:11.786Z,25.60
2023-04-20T04:44:11.882Z,25.60
2023-04-20T04:45:11.886Z,25.60
2023-04-20T04:46:11.945Z,25.58
2023-04-20T04:47:12.002Z,25.55
2023-04-20T04:48:12.386Z,25.56
2023-04-20T04:49:12.113Z,25.56
2023-04-20T04:50:12.183Z,25.53
2023-04-20T04:51:12.217Z,25.52
2023-04-20T04:52:12.289Z,25.58
2023-04-20T04:53:12.324Z,25.51
2023-04-20T04:54:12.398Z,25.56
2023-04-20T04:55:13.829Z,25.53
2023-04-20T04:56:12.584Z,25.51
2023-04-20T04:57:12.692Z,25.52
2023-04-20T04:58:12.712Z,25.52
2023-04-20T04:59:12.796Z,25.48
2023-04-20T05:00:12.880Z,25.52
2023-04-20T05:01:19.878Z,25.47
2023-04-20T05:02:12.987Z,25.44
2023-04-20T05:03:12.924Z,25.41
2023-04-20T05:04:12.953Z,25.49
2023-04-20T05:05:12.823Z,25.45
2023-04-20T05:06:12.823Z,25.47
2023-04-20T05:07:12.823Z,25.48
2023-04-20T05:08:12.808Z,25.48
2023-04-20T05:09:12.777Z,25.42
2023-04-20T05:10:14.654Z,25.45
2023-04-20T05:11:12.805Z,25.47
2023-04-20T05:12:12.805Z,25.48
2023-04-20T05:13:12.864Z,25.45
2023-04-20T05:14:12.902Z,25.42
2023-04-20T05:15:12.981Z,25.42
2023-04-20T05:16:13.062Z,25.44
2023-04-20T05:17:13.100Z,25.43
2023-04-20T05:18:13.130Z,25.42
2023-04-20T05:19:13.199Z,25.41
2023-04-20T05:20:13.266Z,25.43
2023-04-20T05:21:13.330Z,25.44
2023-04-20T05:22:13.389Z,25.36
2023-04-20T05:23:13.389Z,25.34
2023-04-20T05:24:13.402Z,25.35
2023-04-20T05:25:14.065Z,25.31
2023-04-20T05:26:13.411Z,25.34
2023-04-20T05:27:13.428Z,25.35
2023-04-20T05:28:13.451Z,25.35
2023-04-20T05:29:13.476Z,25.31
2023-04-20T05:30:21.280Z,25.34
2023-04-20T05:31:14.490Z,25.32
2023-04-20T05:32:13.924Z,25.38
2023-04-20T05:33:13.459Z,25.34
2023-04-20T05:34:13.429Z,25.35
2023-04-20T05:35:14.443Z,25.25
2023-04-20T05:36:13.458Z,23.74
2023-04-20T05:37:13.986Z,23.04
2023-04-20T05:38:13.435Z,23.29
2023-04-20T05:39:13.451Z,23.24
2023-04-20T05:40:13.449Z,23.09
2023-04-20T05:41:13.444Z,23.28
2023-04-20T05:42:13.422Z,23.31
2023-04-20T05:43:13.380Z,23.32
2023-04-20T05:44:13.381Z,23.36
2023-04-20T05:45:13.376Z,23.35
2023-04-20T05:46:20.499Z,23.39
2023-04-20T05:47:13.382Z,23.27
2023-04-20T05:48:13.516Z,23.64
2023-04-20T05:49:15.048Z,24.07
2023-04-20T05:50:13.358Z,24.60
2023-04-20T05:51:13.350Z,24.77
2023-04-20T05:52:13.361Z,24.80
2023-04-20T05:53:13.363Z,25.26
2023-04-20T05:54:13.400Z,25.42
2023-04-20T05:55:14.419Z,25.73
2023-04-20T05:56:13.297Z,25.90
2023-04-20T05:57:13.307Z,25.99
2023-04-20T05:58:13.299Z,26.13
2023-04-20T05:59:13.291Z,26.34
2023-04-20T06:00:13.278Z,26.52
2023-04-20T06:01:13.265Z,26.50
2023-04-20T06:02:13.417Z,26.42
2023-04-20T06:03:13.428Z,26.46
2023-04-20T06:04:13.605Z,26.66
2023-04-20T06:05:13.229Z,26.77
2023-04-20T06:06:14.061Z,26.93
2023-04-20T06:07:13.209Z,27.01
2023-04-20T06:08:13.216Z,27.27
2023-04-20T06:09:13.190Z,27.51
2023-04-20T06:10:13.236Z,27.62
2023-04-20T06:11:13.246Z,28.03
2023-04-20T06:12:13.285Z,28.17
2023-04-20T06:13:13.322Z,28.12
2023-04-20T06:14:13.405Z,28.23
2023-04-20T06:15:13.374Z,28.27
2023-04-20T06:16:13.483Z,28.48
2023-04-20T06:17:13.371Z,28.71
2023-04-20T06:18:13.409Z,28.75
2023-04-20T06:19:13.379Z,28.86
2023-04-20T06:20:13.514Z,28.98
2023-04-20T06:21:13.367Z,29.19
2023-04-20T06:22:13.394Z,29.40
2023-04-20T06:23:13.496Z,29.23
2023-04-20T06:24:13.470Z,29.59
2023-04-20T06:25:13.412Z,29.58
2023-04-20T06:26:13.448Z,29.60
2023-04-20T06:27:13.423Z,29.67
2023-04-20T06:28:13.438Z,29.84
2023-04-20T06:29:13.365Z,30.08
2023-04-20T06:30:13.352Z,30.08
2023-04-20T06:31:13.424Z,30.25
2023-04-20T06:32:13.396Z,30.37
2023-04-20T06:33:13.390Z,30.50
2023-04-20T06:34:13.428Z,30.48
2023-04-20T06:35:13.465Z,30.78
2023-04-20T06:36:13.468Z,30.80
2023-04-20T06:37:13.514Z,30.94
2023-04-20T06:38:13.594Z,30.81
2023-04-20T06:39:13.644Z,27.88
2023-04-20T06:40:16.002Z,25.41
2023-04-20T06:41:13.843Z,24.90
2023-04-20T06:42:14.506Z,27.30
2023-04-20T06:43:13.911Z,28.19
2023-04-20T06:44:13.893Z,26.99
2023-04-20T06:45:13.901Z,27.64
2023-04-20T06:46:13.981Z,27.84
2023-04-20T06:47:13.876Z,27.50
2023-04-20T06:48:30.250Z,27.75
2023-04-20T06:49:15.163Z,27.71
2023-04-20T06:50:13.896Z,27.66
2023-04-20T06:51:13.895Z,27.67
2023-04-20T06:52:13.901Z,27.73
2023-04-20T06:53:13.870Z,27.73
2023-04-20T06:54:13.872Z,27.82
2023-04-20T06:55:13.860Z,27.82
2023-04-20T06:56:13.944Z,27.82
2023-04-20T06:57:13.813Z,27.96
2023-04-20T06:58:14.064Z,27.97
2023-04-20T06:59:13.900Z,28.07
2023-04-20T07:00:13.871Z,28.07
2023-04-20T07:01:13.943Z,28.01
2023-04-20T07:02:14.179Z,28.22
2023-04-20T07:03:14.618Z,28.18
2023-04-20T07:04:14.223Z,28.16
2023-04-20T07:05:14.216Z,28.16
2023-04-20T07:06:14.249Z,28.18
2023-04-20T07:07:14.296Z,28.15
2023-04-20T07:08:14.374Z,28.11
2023-04-20T07:09:14.462Z,28.05
2023-04-20T07:10:14.544Z,28.13
2023-04-20T07:11:14.622Z,28.08
2023-04-20T07:12:14.630Z,28.05
2023-04-20T07:13:14.723Z,28.02
2023-04-20T07:14:14.781Z,28.04
2023-04-20T07:15:14.805Z,28.07
2023-04-20T07:16:14.902Z,28.14
2023-04-20T07:17:14.943Z,28.11
2023-04-20T07:18:15.008Z,28.15
2023-04-20T07:19:15.217Z,28.36
2023-04-20T07:20:15.126Z,28.43
2023-04-20T07:21:15.145Z,28.56
2023-04-20T07:22:15.217Z,28.61
2023-04-20T07:23:15.266Z,28.59
2023-04-20T07:24:15.335Z,28.14
2023-04-20T07:25:15.382Z,28.37
2023-04-20T07:26:15.472Z,28.12
2023-04-20T07:27:15.491Z,27.59
2023-04-20T07:28:15.637Z,27.70
2023-04-20T07:29:15.683Z,26.15
2023-04-20T07:30:15.609Z,26.13
2023-04-20T07:31:16.486Z,25.71
2023-04-20T07:32:15.687Z,26.47
2023-04-20T07:33:15.996Z,26.25
2023-04-20T07:34:15.743Z,24.99
2023-04-20T07:35:15.627Z,24.61
2023-04-20T07:36:15.665Z,23.56
2023-04-20T07:37:15.669Z,23.86
2023-04-20T07:38:16.017Z,23.71
2023-04-20T07:39:16.067Z,24.44
2023-04-20T07:40:15.797Z,25.25
2023-04-20T07:41:15.876Z,25.74
2023-04-20T07:42:15.954Z,25.65
2023-04-20T07:43:15.986Z,25.68
2023-04-20T07:44:16.009Z,25.81
2023-04-20T07:45:16.078Z,25.94
2023-04-20T07:46:16.111Z,26.03
2023-04-20T07:47:16.090Z,26.04
2023-04-20T07:48:16.506Z,26.13
2023-04-20T07:49:16.403Z,26.26
2023-04-20T07:50:16.104Z,26.45
2023-04-20T07:51:16.190Z,26.66
2023-04-20T07:52:17.298Z,26.77
2023-04-20T07:53:16.225Z,26.99
2023-04-20T07:54:16.290Z,27.01
2023-04-20T07:55:16.302Z,27.05
2023-04-20T07:56:16.355Z,27.08
2023-04-20T07:57:16.563Z,27.18
2023-04-20T07:58:16.470Z,27.17
2023-04-20T07:59:16.753Z,27.23
2023-04-20T08:00:16.442Z,27.30
2023-04-20T08:01:16.490Z,27.29
2023-04-20T08:02:16.483Z,27.31
2023-04-20T08:03:16.629Z,27.35
2023-04-20T08:04:16.749Z,27.34
2023-04-20T08:05:16.617Z,27.27
2023-04-20T08:06:16.517Z,27.31
2023-04-20T08:07:16.561Z,27.29
2023-04-20T08:08:16.574Z,27.16
2023-04-20T08:09:16.872Z,27.23
2023-04-20T08:10:16.600Z,27.37
2023-04-20T08:11:16.601Z,27.44
2023-04-20T08:12:16.649Z,27.50
2023-04-20T08:13:16.670Z,27.49
2023-04-20T08:14:17.237Z,27.52
2023-04-20T08:15:16.653Z,27.59
2023-04-20T08:16:16.780Z,27.59
2023-04-20T08:17:16.706Z,27.56
2023-04-20T08:18:16.704Z,27.58
2023-04-20T08:19:16.730Z,27.64
2023-04-20T08:20:16.729Z,27.68
2023-04-20T08:21:16.754Z,27.89
2023-04-20T08:22:16.771Z,27.79
2023-04-20T08:23:16.769Z,27.87
2023-04-20T08:24:17.250Z,28.04
2023-04-20T08:25:16.790Z,28.13
2023-04-20T08:26:16.798Z,28.23
2023-04-20T08:27:16.772Z,28.31
2023-04-20T08:28:29.375Z,28.44
2023-04-20T08:29:17.814Z,28.56
2023-04-20T08:30:16.800Z,28.57
2023-04-20T08:31:16.795Z,28.50
2023-04-20T08:32:16.756Z,28.50
2023-04-20T08:33:16.869Z,28.38
2023-04-20T08:34:17.028Z,27.93
2023-04-20T08:35:16.729Z,27.92
2023-04-20T08:36:16.734Z,27.69
2023-04-20T08:37:16.680Z,27.71
2023-04-20T08:38:20.693Z,27.59
2023-04-20T08:39:18.001Z,27.54
2023-04-20T08:40:16.705Z,27.40
2023-04-20T08:41:16.699Z,27.29
2023-04-20T08:42:16.673Z,27.18
2023-04-20T08:43:16.694Z,27.08
2023-04-20T08:44:16.878Z,26.95
2023-04-20T08:45:16.653Z,26.85
2023-04-20T08:46:16.689Z,26.67
2023-04-20T08:47:16.666Z,26.53
2023-04-20T08:48:16.647Z,26.43
2023-04-20T08:49:17.028Z,26.34
2023-04-20T08:50:16.625Z,26.18
2023-04-20T08:51:16.614Z,26.17
2023-04-20T08:52:16.581Z,26.03
2023-04-20T08:53:16.608Z,25.95
2023-04-20T08:54:17.072Z,25.81
2023-04-20T08:55:16.581Z,25.79
2023-04-20T08:56:16.596Z,25.78
2023-04-20T08:57:16.563Z,25.61
2023-04-20T08:58:16.571Z,25.48
2023-04-20T08:59:17.082Z,25.37
2023-04-20T09:00:16.551Z,25.31
2023-04-20T09:01:20.046Z,25.21
2023-04-20T09:02:17.655Z,25.11
2023-04-20T09:03:16.686Z,24.22
2023-04-20T09:04:17.292Z,23.26
2023-04-20T09:05:16.616Z,23.21
2023-04-20T09:06:16.495Z,23.25
2023-04-20T09:07:16.511Z,22.97
2023-04-20T09:08:16.474Z,23.00
2023-04-20T09:09:16.541Z,23.14
2023-04-20T09:10:16.483Z,22.97
2023-04-20T09:11:16.479Z,23.02
2023-04-20T09:12:16.468Z,23.08
2023-04-20T09:13:16.470Z,23.09
2023-04-20T09:14:17.028Z,23.19
2023-04-20T09:15:16.436Z,23.34
2023-04-20T09:16:16.455Z,23.31
2023-04-20T09:17:16.430Z,23.40
2023-04-20T09:18:16.441Z,23.22
2023-04-20T09:19:16.558Z,23.33
2023-04-20T09:20:16.408Z,23.26
2023-04-20T09:21:16.396Z,23.84
2023-04-20T09:22:16.402Z,23.73
2023-04-20T09:23:16.404Z,23.81
2023-04-20T09:24:16.644Z,23.40
2023-04-20T09:25:16.456Z,23.44
2023-04-20T09:26:16.389Z,23.57
2023-04-20T09:27:16.400Z,23.69
2023-04-20T09:28:17.084Z,23.74
2023-04-20T09:29:16.475Z,23.71
2023-04-20T09:30:16.406Z,23.73
2023-04-20T09:31:16.445Z,23.53
2023-04-20T09:32:16.454Z,23.68
2023-04-20T09:33:16.456Z,23.62
2023-04-20T09:34:16.665Z,23.53
2023-04-20T09:35:16.536Z,23.65
2023-04-20T09:36:16.623Z,23.82
2023-04-20T09:37:16.534Z,23.79
2023-04-20T09:38:16.537Z,23.84
2023-04-20T09:39:16.591Z,23.72
2023-04-20T09:40:16.621Z,23.86
2023-04-20T09:41:16.659Z,23.81
2023-04-20T09:42:16.693Z,23.88
2023-04-20T09:43:16.721Z,23.75
2023-04-20T09:44:16.894Z,23.75
2023-04-20T09:45:16.802Z,23.73
2023-04-20T09:46:16.836Z,23.69
2023-04-20T09:47:16.832Z,23.65
2023-04-20T09:48:16.843Z,23.57
2023-04-20T09:49:16.883Z,23.57
2023-04-20T09:50:26.904Z,23.66
2023-04-20T09:51:17.925Z,23.48
2023-04-20T09:52:16.934Z,23.36
2023-04-20T09:53:16.898Z,23.39
2023-04-20T09:54:17.322Z,23.51
2023-04-20T09:55:17.057Z,23.48
2023-04-20T09:56:16.916Z,23.45
2023-04-20T09:57:16.975Z,23.24
2023-04-20T09:58:16.974Z,23.33
2023-04-20T09:59:17.022Z,23.64
2023-04-20T10:00:17.574Z,23.42
2023-04-20T10:01:17.167Z,23.27
2023-04-20T10:02:17.276Z,23.29
2023-04-20T10:03:17.463Z,23.21
2023-04-20T10:04:17.609Z,23.12
2023-04-20T10:05:17.223Z,23.14
2023-04-20T10:06:17.281Z,23.20
2023-04-20T10:07:17.344Z,23.23
2023-04-20T10:08:17.362Z,23.22
2023-04-20T10:09:17.395Z,23.32
2023-04-20T10:10:17.569Z,23.26
2023-04-20T10:11:17.459Z,23.32
2023-04-20T10:12:17.492Z,23.17
2023-04-20T10:13:17.477Z,23.27
2023-04-20T10:14:17.812Z,23.36
2023-04-20T10:15:17.431Z,23.75
2023-04-20T10:16:17.452Z,23.73
2023-04-20T10:17:17.640Z,23.10
2023-04-20T10:18:17.625Z,23.23
2023-04-20T10:19:17.472Z,23.37
2023-04-20T10:20:17.562Z,23.17
2023-04-20T10:21:17.497Z,23.31
2023-04-20T10:22:17.533Z,23.36
2023-04-20T10:23:17.566Z,23.28
2023-04-20T10:24:19.582Z,23.36
2023-04-20T10:25:17.627Z,23.40
2023-04-20T10:26:17.581Z,23.53
2023-04-20T10:27:17.583Z,23.43
2023-04-20T10:28:17.568Z,23.40
2023-04-20T10:29:17.594Z,23.53
2023-04-20T10:30:17.609Z,23.58
2023-04-20T10:31:17.563Z,23.51
2023-04-20T10:32:17.587Z,23.72
2023-04-20T10:33:17.644Z,23.91
2023-04-20T10:34:17.743Z,23.73
2023-04-20T10:35:17.587Z,23.70
2023-04-20T10:36:17.503Z,23.46
2023-04-20T10:37:17.507Z,23.43
2023-04-20T10:38:17.494Z,23.54
2023-04-20T10:39:19.542Z,23.50
2023-04-20T10:40:17.671Z,23.55
2023-04-20T10:41:17.488Z,23.62
2023-04-20T10:42:18.287Z,24.24
2023-04-20T10:43:17.511Z,24.48
2023-04-20T10:44:17.797Z,25.23
2023-04-20T10:45:18.075Z,25.12
2023-04-20T10:46:17.607Z,25.38
2023-04-20T10:47:17.627Z,25.42
2023-04-20T10:48:18.351Z,25.43
2023-04-20T10:49:18.021Z,25.41
2023-04-20T10:50:17.708Z,25.43
2023-04-20T10:51:17.667Z,25.45
2023-04-20T10:52:17.708Z,25.48
2023-04-20T10:53:17.669Z,25.35
2023-04-20T10:54:18.343Z,25.34
2023-04-20T10:55:17.685Z,25.26
2023-04-20T10:56:17.820Z,25.30
2023-04-20T10:57:19.097Z,25.32
2023-04-20T10:58:17.746Z,25.21
2023-04-20T10:59:17.983Z,25.21
2023-04-20T11:00:17.794Z,25.20
2023-04-20T11:01:17.803Z,25.17
2023-04-20T11:02:17.881Z,25.14
2023-04-20T11:03:17.852Z,25.10
2023-04-20T11:04:19.022Z,25.11
2023-04-20T11:05:17.837Z,25.15
2023-04-20T11:06:17.788Z,25.12
2023-04-20T11:07:17.788Z,25.08
2023-04-20T11:08:17.771Z,25.04
2023-04-20T11:09:17.957Z,25.05
2023-04-20T11:10:17.914Z,25.04
2023-04-20T11:11:17.840Z,25.05
2023-04-20T11:12:17.792Z,25.04
2023-04-20T11:13:17.830Z,24.97
2023-04-20T11:14:17.888Z,24.99
2023-04-20T11:15:17.894Z,25.02
2023-04-20T11:16:18.155Z,25.02
2023-04-20T11:17:18.095Z,24.95
2023-04-20T11:18:18.072Z,24.96
2023-04-20T11:19:18.266Z,24.98
2023-04-20T11:20:18.124Z,24.95
2023-04-20T11:21:18.585Z,24.91
2023-04-20T11:22:18.146Z,24.91
2023-04-20T11:23:18.181Z,24.95
2023-04-20T11:24:18.234Z,24.88
2023-04-20T11:25:18.218Z,24.93
2023-04-20T11:26:18.608Z,24.92
2023-04-20T11:27:18.321Z,24.94
2023-04-20T11:28:18.363Z,24.87
2023-04-20T11:29:18.470Z,24.88
2023-04-20T11:30:18.432Z,24.89
2023-04-20T11:31:18.787Z,24.84
2023-04-20T11:32:19.174Z,24.83
2023-04-20T11:33:18.650Z,24.81
2023-04-20T11:34:18.499Z,24.86
2023-04-20T11:35:18.517Z,24.86
2023-04-20T11:36:18.603Z,24.84
2023-04-20T11:37:18.524Z,24.80
2023-04-20T11:38:18.540Z,24.82
2023-04-20T11:39:18.948Z,24.83
2023-04-20T11:40:18.667Z,24.87
2023-04-20T11:41:19.111Z,24.86
2023-04-20T11:42:18.619Z,24.83
2023-04-20T11:43:18.633Z,24.82
2023-04-20T11:44:18.605Z,24.83
2023-04-20T11:45:18.626Z,24.84
2023-04-20T11:46:18.752Z,24.83
2023-04-20T11:47:18.828Z,24.80
2023-04-20T11:48:18.850Z,24.81
2023-04-20T11:49:19.149Z,24.83
2023-04-20T11:50:18.993Z,24.82
2023-04-20T11:51:19.001Z,24.82
2023-04-20T11:52:19.067Z,24.86
2023-04-20T11:53:19.110Z,24.86
2023-04-20T11:54:19.184Z,24.83
2023-04-20T11:55:19.237Z,24.83
2023-04-20T11:56:19.289Z,24.83
2023-04-20T11:57:19.341Z,24.84
2023-04-20T11:58:19.411Z,24.81
2023-04-20T11:59:19.808Z,24.85
2023-04-20T12:00:19.542Z,24.83
2023-04-20T12:01:19.588Z,24.87
2023-04-20T12:02:19.751Z,24.79
2023-04-20T12:03:19.802Z,24.89
2023-04-20T12:04:20.113Z,24.86
2023-04-20T12:05:19.937Z,24.90
2023-04-20T12:06:19.932Z,24.89
2023-04-20T12:07:19.955Z,24.86
2023-04-20T12:08:20.027Z,24.84
2023-04-20T12:09:20.338Z,24.82
2023-04-20T12:10:20.158Z,24.81
2023-04-20T12:11:20.223Z,24.82
2023-04-20T12:12:20.267Z,24.84
2023-04-20T12:13:20.322Z,24.82
2023-04-20T12:14:20.378Z,24.79
2023-04-20T12:15:20.436Z,24.77
2023-04-20T12:16:20.659Z,24.75
2023-04-20T12:17:20.674Z,24.81
2023-04-20T12:18:20.624Z,24.82
2023-04-20T12:19:20.825Z,24.84
2023-04-20T12:20:20.757Z,24.84
2023-04-20T12:21:20.771Z,24.84
2023-04-20T12:22:20.832Z,24.82
2023-04-20T12:23:20.870Z,24.89
2023-04-20T12:24:20.934Z,24.82
2023-04-20T12:25:20.990Z,24.82
2023-04-20T12:26:22.651Z,24.86
2023-04-20T12:27:21.041Z,24.79
2023-04-20T12:28:21.040Z,24.79
2023-04-20T12:29:21.070Z,24.84
2023-04-20T12:30:21.028Z,24.87
2023-04-20T12:31:21.612Z,24.84
2023-04-20T12:32:21.017Z,24.82
2023-04-20T12:33:20.991Z,24.85
2023-04-20T12:34:21.241Z,24.81
2023-04-20T12:35:20.969Z,24.87
2023-04-20T12:36:20.984Z,24.86
2023-04-20T12:37:21.001Z,24.86
2023-04-20T12:38:20.953Z,24.85
2023-04-20T12:39:20.959Z,24.85
2023-04-20T12:40:20.917Z,24.86
2023-04-20T12:41:20.933Z,24.85
2023-04-20T12:42:20.934Z,24.89
2023-04-20T12:43:20.912Z,24.85
2023-04-20T12:44:21.188Z,24.86
2023-04-20T12:45:20.921Z,24.86
2023-04-20T12:46:20.962Z,24.86
2023-04-20T12:47:21.022Z,24.89
2023-04-20T12:48:20.916Z,24.82
2023-04-20T12:49:20.997Z,24.83
2023-04-20T12:50:20.872Z,24.84
2023-04-20T12:51:20.888Z,24.86
2023-04-20T12:52:20.891Z,24.88
2023-04-20T12:53:20.932Z,24.85
2023-04-20T12:54:20.954Z,24.88